sensor_id;sensor_type;location;lat;lon;timestamp;P1;durP1;ratioP1;P2;durP2;ratioP2
19946;SDS011;10135;50.702;7.276;2024-02-26T06:00:10;1.43;;;1.43;;
19946;SDS011;10135;50.702;7.276;2024-02-26T06:02:12;1.23;;;1.23;;
19946;SDS011;10135;50.702;7.276;2024-02-26T06:04:13;1.93;;;1.57;;
19946;SDS011;10135;50.702;7.276;2024-02-26T06:06:13;1.33;;;1.33;;
19946;SDS011;10135;50.702;7.276;2024-02-26T06:08:15;1.50;;;1.50;;
19946;SDS011;10135;50.702;7.276;2024-02-26T06:10:15;1.97;;;1.47;;
19946;SDS011;10135;50.702;7.276;2024-02-26T06:12:16;1.40;;;1.40;;
19946;SDS011;10135;50.702;7.276;2024-02-26T06:14:17;1.33;;;1.30;;
19946;SDS011;10135;50.702;7.276;2024-02-26T06:16:18;1.30;;;1.30;;
19946;SDS011;10135;50.702;7.276;2024-02-26T06:18:19;1.40;;;1.30;;
19946;SDS011;10135;50.702;7.276;2024-02-26T06:20:19;1.63;;;1.40;;
19946;SDS011;10135;50.702;7.276;2024-02-26T06:22:20;1.40;;;1.40;;
19946;SDS011;10135;50.702;7.276;2024-02-26T06:24:20;1.40;;;1.40;;
19946;SDS011;10135;50.702;7.276;2024-02-26T06:26:22;1.43;;;1.43;;
19946;SDS011;10135;50.702;7.276;2024-02-26T06:28:23;1.40;;;1.40;;
19946;SDS011;10135;50.702;7.276;2024-02-26T06:30:23;1.50;;;1.40;;
19946;SDS011;10135;50.702;7.276;2024-02-26T06:32:24;2.50;;;1.47;;
19946;SDS011;10135;50.702;7.276;2024-02-26T06:34:27;1.40;;;1.40;;
19946;SDS011;10135;50.702;7.276;2024-02-26T06:36:28;1.77;;;1.67;;
19946;SDS011;10135;50.702;7.276;2024-02-26T06:38:28;1.30;;;1.30;;
19946;SDS011;10135;50.702;7.276;2024-02-26T06:40:29;1.70;;;1.60;;
19946;SDS011;10135;50.702;7.276;2024-02-26T06:42:30;1.53;;;1.43;;
19946;SDS011;10135;50.702;7.276;2024-02-26T06:44:30;1.50;;;1.50;;
19946;SDS011;10135;50.702;7.276;2024-02-26T06:46:32;1.33;;;1.33;;
19946;SDS011;10135;50.702;7.276;2024-02-26T06:48:32;1.70;;;1.60;;
19946;SDS011;10135;50.702;7.276;2024-02-26T06:50:33;1.50;;;1.50;;
19946;SDS011;10135;50.702;7.276;2024-02-26T06:52:34;1.60;;;1.60;;
19946;SDS011;10135;50.702;7.276;2024-02-26T06:54:34;1.40;;;1.40;;
19946;SDS011;10135;50.702;7.276;2024-02-26T06:56:35;1.60;;;1.50;;
19946;SDS011;10135;50.702;7.276;2024-02-26T06:58:36;1.70;;;1.60;;
19946;SDS011;10135;50.702;7.276;2024-02-26T07:00:36;1.80;;;1.70;;
19946;SDS011;10135;50.702;7.276;2024-02-26T07:02:37;1.53;;;1.43;;
19946;SDS011;10135;50.702;7.276;2024-02-26T07:04:37;1.60;;;1.50;;
19946;SDS011;10135;50.702;7.276;2024-02-26T07:06:38;1.60;;;1.50;;
19946;SDS011;10135;50.702;7.276;2024-02-26T07:08:39;1.57;;;1.50;;
19946;SDS011;10135;50.702;7.276;2024-02-26T07:10:40;1.50;;;1.50;;
19946;SDS011;10135;50.702;7.276;2024-02-26T07:12:40;1.80;;;1.63;;
19946;SDS011;10135;50.702;7.276;2024-02-26T07:14:41;1.60;;;1.60;;
19946;SDS011;10135;50.702;7.276;2024-02-26T07:16:42;1.93;;;1.83;;
19946;SDS011;10135;50.702;7.276;2024-02-26T07:18:42;1.50;;;1.50;;
19946;SDS011;10135;50.702;7.276;2024-02-26T07:20:43;1.43;;;1.43;;
19946;SDS011;10135;50.702;7.276;2024-02-26T07:22:44;1.90;;;1.80;;
19946;SDS011;10135;50.702;7.276;2024-02-26T07:24:44;1.50;;;1.40;;
19946;SDS011;10135;50.702;7.276;2024-02-26T07:26:45;1.70;;;1.60;;
19946;SDS011;10135;50.702;7.276;2024-02-26T07:28:46;1.50;;;1.50;;
19946;SDS011;10135;50.702;7.276;2024-02-26T07:30:46;1.57;;;1.57;;
19946;SDS011;10135;50.702;7.276;2024-02-26T07:32:47;1.70;;;1.60;;
19946;SDS011;10135;50.702;7.276;2024-02-26T07:34:48;2.60;;;1.83;;
19946;SDS011;10135;50.702;7.276;2024-02-26T07:36:48;1.53;;;1.50;;
19946;SDS011;10135;50.702;7.276;2024-02-26T07:38:49;1.80;;;1.67;;
19946;SDS011;10135;50.702;7.276;2024-02-26T07:40:52;1.73;;;1.63;;
19946;SDS011;10135;50.702;7.276;2024-02-26T07:42:52;1.60;;;1.57;;
19946;SDS011;10135;50.702;7.276;2024-02-26T07:44:53;1.50;;;1.40;;
19946;SDS011;10135;50.702;7.276;2024-02-26T07:46:53;1.80;;;1.70;;
19946;SDS011;10135;50.702;7.276;2024-02-26T07:48:54;1.93;;;1.50;;
19946;SDS011;10135;50.702;7.276;2024-02-26T07:50:55;1.83;;;1.77;;
19946;SDS011;10135;50.702;7.276;2024-02-26T07:52:56;2.30;;;2.03;;
19946;SDS011;10135;50.702;7.276;2024-02-26T07:54:57;1.90;;;1.80;;
19946;SDS011;10135;50.702;7.276;2024-02-26T07:56:58;2.03;;;1.60;;
19946;SDS011;10135;50.702;7.276;2024-02-26T07:58:58;2.07;;;1.97;;
19946;SDS011;10135;50.702;7.276;2024-02-26T08:00:59;1.80;;;1.70;;
19946;SDS011;10135;50.702;7.276;2024-02-26T08:03:00;1.70;;;1.60;;
19946;SDS011;10135;50.702;7.276;2024-02-26T08:05:01;1.83;;;1.73;;
19946;SDS011;10135;50.702;7.276;2024-02-26T08:07:01;1.80;;;1.70;;
19946;SDS011;10135;50.702;7.276;2024-02-26T08:09:02;1.90;;;1.80;;
19946;SDS011;10135;50.702;7.276;2024-02-26T08:11:04;1.63;;;1.53;;
19946;SDS011;10135;50.702;7.276;2024-02-26T08:13:04;1.87;;;1.77;;
19946;SDS011;10135;50.702;7.276;2024-02-26T08:15:05;1.80;;;1.70;;
19946;SDS011;10135;50.702;7.276;2024-02-26T08:17:07;2.23;;;2.03;;
19946;SDS011;10135;50.702;7.276;2024-02-26T08:19:08;1.67;;;1.57;;
19946;SDS011;10135;50.702;7.276;2024-02-26T08:21:11;1.73;;;1.73;;
19946;SDS011;10135;50.702;7.276;2024-02-26T08:23:12;1.80;;;1.50;;
19946;SDS011;10135;50.702;7.276;2024-02-26T08:25:12;1.90;;;1.80;;
19946;SDS011;10135;50.702;7.276;2024-02-26T08:27:13;1.93;;;1.80;;
19946;SDS011;10135;50.702;7.276;2024-02-26T08:29:14;1.93;;;1.83;;
19946;SDS011;10135;50.702;7.276;2024-02-26T08:31:14;1.73;;;1.70;;
19946;SDS011;10135;50.702;7.276;2024-02-26T08:33:15;2.00;;;1.90;;
19946;SDS011;10135;50.702;7.276;2024-02-26T08:35:16;1.93;;;1.93;;
19946;SDS011;10135;50.702;7.276;2024-02-26T08:37:16;1.60;;;1.60;;
19946;SDS011;10135;50.702;7.276;2024-02-26T08:39:17;1.87;;;1.77;;
19946;SDS011;10135;50.702;7.276;2024-02-26T08:41:18;2.10;;;2.00;;
19946;SDS011;10135;50.702;7.276;2024-02-26T08:43:19;1.67;;;1.60;;
19946;SDS011;10135;50.702;7.276;2024-02-26T08:45:19;1.83;;;1.50;;
19946;SDS011;10135;50.702;7.276;2024-02-26T08:47:20;2.00;;;1.90;;
19946;SDS011;10135;50.702;7.276;2024-02-26T08:49:21;2.00;;;1.90;;
19946;SDS011;10135;50.702;7.276;2024-02-26T08:51:23;1.97;;;1.87;;
19946;SDS011;10135;50.702;7.276;2024-02-26T08:53:24;1.80;;;1.70;;
19946;SDS011;10135;50.702;7.276;2024-02-26T08:55:26;2.03;;;1.93;;
19946;SDS011;10135;50.702;7.276;2024-02-26T08:57:27;1.70;;;1.60;;
19946;SDS011;10135;50.702;7.276;2024-02-26T08:59:28;2.00;;;1.90;;
19946;SDS011;10135;50.702;7.276;2024-02-26T09:01:29;1.67;;;1.67;;
19946;SDS011;10135;50.702;7.276;2024-02-26T09:03:31;2.13;;;1.80;;
19946;SDS011;10135;50.702;7.276;2024-02-26T09:05:32;1.90;;;1.90;;
19946;SDS011;10135;50.702;7.276;2024-02-26T09:07:33;2.30;;;2.20;;
19946;SDS011;10135;50.702;7.276;2024-02-26T09:09:33;2.20;;;2.10;;
19946;SDS011;10135;50.702;7.276;2024-02-26T09:11:34;2.00;;;1.90;;
19946;SDS011;10135;50.702;7.276;2024-02-26T09:13:34;2.10;;;2.00;;
19946;SDS011;10135;50.702;7.276;2024-02-26T09:15:35;2.10;;;2.00;;
19946;SDS011;10135;50.702;7.276;2024-02-26T09:17:36;2.10;;;1.97;;
19946;SDS011;10135;50.702;7.276;2024-02-26T09:19:36;1.90;;;1.80;;
19946;SDS011;10135;50.702;7.276;2024-02-26T09:21:41;2.00;;;1.90;;
19946;SDS011;10135;50.702;7.276;2024-02-26T09:23:46;1.70;;;1.60;;
19946;SDS011;10135;50.702;7.276;2024-02-26T09:25:46;1.90;;;1.80;;
19946;SDS011;10135;50.702;7.276;2024-02-26T09:27:47;1.70;;;1.60;;
19946;SDS011;10135;50.702;7.276;2024-02-26T09:29:48;1.97;;;1.87;;
19946;SDS011;10135;50.702;7.276;2024-02-26T09:31:48;2.50;;;2.30;;
19946;SDS011;10135;50.702;7.276;2024-02-26T09:33:49;2.00;;;1.90;;
19946;SDS011;10135;50.702;7.276;2024-02-26T09:35:50;3.20;;;2.00;;
19946;SDS011;10135;50.702;7.276;2024-02-26T09:37:50;2.53;;;1.90;;
19946;SDS011;10135;50.702;7.276;2024-02-26T09:39:51;4.00;;;2.50;;
19946;SDS011;10135;50.702;7.276;2024-02-26T09:41:51;3.23;;;3.03;;
19946;SDS011;10135;50.702;7.276;2024-02-26T09:43:52;6.33;;;3.40;;
19946;SDS011;10135;50.702;7.276;2024-02-26T09:45:57;3.33;;;2.97;;
19946;SDS011;10135;50.702;7.276;2024-02-26T09:47:58;3.90;;;3.50;;
19946;SDS011;10135;50.702;7.276;2024-02-26T09:50:00;4.47;;;2.90;;
19946;SDS011;10135;50.702;7.276;2024-02-26T09:52:04;4.00;;;3.00;;
19946;SDS011;10135;50.702;7.276;2024-02-26T09:54:07;2.93;;;2.73;;
19946;SDS011;10135;50.702;7.276;2024-02-26T09:56:10;2.67;;;2.47;;
19946;SDS011;10135;50.702;7.276;2024-02-26T09:58:15;2.60;;;2.50;;
19946;SDS011;10135;50.702;7.276;2024-02-26T10:00:18;2.60;;;2.50;;
19946;SDS011;10135;50.702;7.276;2024-02-26T10:02:21;2.47;;;2.27;;
19946;SDS011;10135;50.702;7.276;2024-02-26T10:04:23;3.20;;;2.60;;
19946;SDS011;10135;50.702;7.276;2024-02-26T10:06:26;2.53;;;2.33;;
19946;SDS011;10135;50.702;7.276;2024-02-26T10:08:27;2.60;;;2.40;;
19946;SDS011;10135;50.702;7.276;2024-02-26T10:10:29;2.30;;;2.20;;
19946;SDS011;10135;50.702;7.276;2024-02-26T10:12:32;2.37;;;2.20;;
19946;SDS011;10135;50.702;7.276;2024-02-26T10:14:33;2.40;;;2.00;;
19946;SDS011;10135;50.702;7.276;2024-02-26T10:16:34;4.57;;;2.30;;
19946;SDS011;10135;50.702;7.276;2024-02-26T10:18:51;2.20;;;2.10;;
19946;SDS011;10135;50.702;7.276;2024-02-26T10:20:59;2.10;;;2.00;;
19946;SDS011;10135;50.702;7.276;2024-02-26T10:23:04;2.10;;;2.00;;
19946;SDS011;10135;50.702;7.276;2024-02-26T10:25:05;1.80;;;1.70;;
19946;SDS011;10135;50.702;7.276;2024-02-26T10:27:06;3.10;;;1.80;;
19946;SDS011;10135;50.702;7.276;2024-02-26T10:29:08;2.00;;;1.90;;
19946;SDS011;10135;50.702;7.276;2024-02-26T10:31:09;1.80;;;1.77;;
19946;SDS011;10135;50.702;7.276;2024-02-26T10:33:11;2.30;;;2.20;;
19946;SDS011;10135;50.702;7.276;2024-02-26T10:35:13;2.03;;;1.93;;
19946;SDS011;10135;50.702;7.276;2024-02-26T10:37:17;2.07;;;1.97;;
19946;SDS011;10135;50.702;7.276;2024-02-26T10:39:18;2.20;;;2.00;;
19946;SDS011;10135;50.702;7.276;2024-02-26T10:41:19;1.63;;;1.63;;
19946;SDS011;10135;50.702;7.276;2024-02-26T10:43:19;2.00;;;1.90;;
19946;SDS011;10135;50.702;7.276;2024-02-26T10:45:20;2.17;;;2.00;;
19946;SDS011;10135;50.702;7.276;2024-02-26T10:47:21;2.40;;;2.20;;
19946;SDS011;10135;50.702;7.276;2024-02-26T10:49:21;2.20;;;2.10;;
19946;SDS011;10135;50.702;7.276;2024-02-26T10:51:26;2.03;;;1.93;;
19946;SDS011;10135;50.702;7.276;2024-02-26T10:53:30;2.33;;;1.83;;
19946;SDS011;10135;50.702;7.276;2024-02-26T10:55:33;2.20;;;1.97;;
19946;SDS011;10135;50.702;7.276;2024-02-26T10:57:40;2.20;;;2.10;;
19946;SDS011;10135;50.702;7.276;2024-02-26T10:59:43;2.10;;;2.00;;
19946;SDS011;10135;50.702;7.276;2024-02-26T11:01:45;1.97;;;1.87;;
19946;SDS011;10135;50.702;7.276;2024-02-26T11:03:47;2.30;;;2.20;;
19946;SDS011;10135;50.702;7.276;2024-02-26T11:05:51;2.10;;;2.00;;
19946;SDS011;10135;50.702;7.276;2024-02-26T11:07:52;2.50;;;2.30;;
19946;SDS011;10135;50.702;7.276;2024-02-26T11:09:55;1.93;;;1.83;;
19946;SDS011;10135;50.702;7.276;2024-02-26T11:11:59;1.90;;;1.80;;
19946;SDS011;10135;50.702;7.276;2024-02-26T11:14:01;2.00;;;1.90;;
19946;SDS011;10135;50.702;7.276;2024-02-26T11:16:03;1.80;;;1.70;;
19946;SDS011;10135;50.702;7.276;2024-02-26T11:18:06;2.00;;;1.90;;
19946;SDS011;10135;50.702;7.276;2024-02-26T11:20:09;2.10;;;2.00;;
19946;SDS011;10135;50.702;7.276;2024-02-26T11:22:13;2.07;;;1.97;;
19946;SDS011;10135;50.702;7.276;2024-02-26T11:24:14;2.10;;;2.00;;
19946;SDS011;10135;50.702;7.276;2024-02-26T11:26:18;2.20;;;2.10;;
19946;SDS011;10135;50.702;7.276;2024-02-26T11:28:22;2.13;;;2.03;;
19946;SDS011;10135;50.702;7.276;2024-02-26T11:30:26;2.10;;;2.00;;
19946;SDS011;10135;50.702;7.276;2024-02-26T11:32:33;2.77;;;2.17;;
19946;SDS011;10135;50.702;7.276;2024-02-26T11:34:35;2.30;;;2.10;;
19946;SDS011;10135;50.702;7.276;2024-02-26T11:36:36;2.00;;;1.90;;
19946;SDS011;10135;50.702;7.276;2024-02-26T11:38:38;2.40;;;2.20;;
19946;SDS011;10135;50.702;7.276;2024-02-26T11:40:39;2.23;;;2.13;;
19946;SDS011;10135;50.702;7.276;2024-02-26T11:42:44;2.10;;;2.00;;
19946;SDS011;10135;50.702;7.276;2024-02-26T11:44:45;2.37;;;2.20;;
19946;SDS011;10135;50.702;7.276;2024-02-26T11:46:46;2.20;;;2.10;;
19946;SDS011;10135;50.702;7.276;2024-02-26T11:48:48;2.60;;;2.40;;
19946;SDS011;10135;50.702;7.276;2024-02-26T11:55:31;2.50;;;2.30;;
19946;SDS011;10135;50.702;7.276;2024-02-26T11:57:38;2.30;;;2.20;;
19946;SDS011;10135;50.702;7.276;2024-02-26T11:59:40;2.23;;;2.13;;
19946;SDS011;10135;50.702;7.276;2024-02-26T12:01:44;2.30;;;2.20;;
19946;SDS011;10135;50.702;7.276;2024-02-26T12:03:53;2.20;;;2.00;;
19946;SDS011;10135;50.702;7.276;2024-02-26T12:05:55;2.40;;;2.20;;
19946;SDS011;10135;50.702;7.276;2024-02-26T12:08:00;3.80;;;2.10;;
19946;SDS011;10135;50.702;7.276;2024-02-26T12:12:39;2.30;;;2.10;;
19946;SDS011;10135;50.702;7.276;2024-02-26T12:14:40;2.20;;;2.10;;
19946;SDS011;10135;50.702;7.276;2024-02-26T12:16:52;2.60;;;2.40;;
19946;SDS011;10135;50.702;7.276;2024-02-26T12:18:55;2.33;;;2.23;;
19946;SDS011;10135;50.702;7.276;2024-02-26T12:20:59;2.40;;;2.10;;
19946;SDS011;10135;50.702;7.276;2024-02-26T12:23:03;2.30;;;2.20;;
19946;SDS011;10135;50.702;7.276;2024-02-26T12:25:04;2.33;;;2.17;;
19946;SDS011;10135;50.702;7.276;2024-02-26T12:27:05;2.30;;;2.10;;
19946;SDS011;10135;50.702;7.276;2024-02-26T12:29:06;2.40;;;2.30;;
19946;SDS011;10135;50.702;7.276;2024-02-26T12:31:09;3.83;;;2.50;;
19946;SDS011;10135;50.702;7.276;2024-02-26T12:33:09;2.50;;;2.37;;
19946;SDS011;10135;50.702;7.276;2024-02-26T12:35:11;2.50;;;2.30;;
19946;SDS011;10135;50.702;7.276;2024-02-26T12:37:12;2.20;;;2.10;;
19946;SDS011;10135;50.702;7.276;2024-02-26T12:39:13;4.17;;;2.70;;
19946;SDS011;10135;50.702;7.276;2024-02-26T12:41:14;2.20;;;2.10;;
19946;SDS011;10135;50.702;7.276;2024-02-26T12:43:15;2.40;;;2.30;;
19946;SDS011;10135;50.702;7.276;2024-02-26T12:45:16;2.40;;;2.30;;
19946;SDS011;10135;50.702;7.276;2024-02-26T12:47:16;2.50;;;2.30;;
19946;SDS011;10135;50.702;7.276;2024-02-26T12:49:18;3.10;;;2.40;;
19946;SDS011;10135;50.702;7.276;2024-02-26T12:51:19;2.70;;;2.60;;
19946;SDS011;10135;50.702;7.276;2024-02-26T12:53:19;3.63;;;3.27;;
19946;SDS011;10135;50.702;7.276;2024-02-26T12:55:21;2.60;;;2.40;;
19946;SDS011;10135;50.702;7.276;2024-02-26T12:57:22;2.70;;;2.50;;
19946;SDS011;10135;50.702;7.276;2024-02-26T12:59:24;2.03;;;1.93;;
19946;SDS011;10135;50.702;7.276;2024-02-26T13:01:25;2.40;;;2.30;;
19946;SDS011;10135;50.702;7.276;2024-02-26T13:03:26;2.80;;;2.60;;
19946;SDS011;10135;50.702;7.276;2024-02-26T13:05:28;3.50;;;2.30;;
19946;SDS011;10135;50.702;7.276;2024-02-26T13:07:29;2.30;;;2.20;;
19946;SDS011;10135;50.702;7.276;2024-02-26T13:09:33;2.40;;;2.20;;
19946;SDS011;10135;50.702;7.276;2024-02-26T13:11:39;2.60;;;2.40;;
19946;SDS011;10135;50.702;7.276;2024-02-26T13:13:40;3.23;;;2.50;;
19946;SDS011;10135;50.702;7.276;2024-02-26T13:15:41;2.50;;;2.40;;
19946;SDS011;10135;50.702;7.276;2024-02-26T13:17:42;2.70;;;2.33;;
19946;SDS011;10135;50.702;7.276;2024-02-26T13:19:49;2.57;;;2.37;;
19946;SDS011;10135;50.702;7.276;2024-02-26T13:21:50;2.70;;;2.47;;
19946;SDS011;10135;50.702;7.276;2024-02-26T13:23:52;2.70;;;2.60;;
19946;SDS011;10135;50.702;7.276;2024-02-26T13:25:56;2.60;;;2.40;;
19946;SDS011;10135;50.702;7.276;2024-02-26T13:28:06;2.93;;;2.50;;
19946;SDS011;10135;50.702;7.276;2024-02-26T13:30:23;2.63;;;2.43;;
19946;SDS011;10135;50.702;7.276;2024-02-26T13:32:28;2.40;;;2.30;;
19946;SDS011;10135;50.702;7.276;2024-02-26T13:34:31;2.57;;;2.37;;
19946;SDS011;10135;50.702;7.276;2024-02-26T13:36:33;2.53;;;2.43;;
19946;SDS011;10135;50.702;7.276;2024-02-26T13:48:23;2.93;;;2.33;;
19946;SDS011;10135;50.702;7.276;2024-02-26T13:50:23;2.20;;;2.10;;
19946;SDS011;10135;50.702;7.276;2024-02-26T13:52:24;2.67;;;2.47;;
19946;SDS011;10135;50.702;7.276;2024-02-26T13:54:25;2.50;;;2.30;;
19946;SDS011;10135;50.702;7.276;2024-02-26T13:56:26;2.40;;;2.20;;
19946;SDS011;10135;50.702;7.276;2024-02-26T13:58:27;2.40;;;2.30;;
19946;SDS011;10135;50.702;7.276;2024-02-26T14:00:28;2.70;;;2.50;;
19946;SDS011;10135;50.702;7.276;2024-02-26T14:02:33;2.53;;;2.33;;
19946;SDS011;10135;50.702;7.276;2024-02-26T14:04:37;2.40;;;2.23;;
19946;SDS011;10135;50.702;7.276;2024-02-26T14:06:38;2.50;;;2.40;;
19946;SDS011;10135;50.702;7.276;2024-02-26T14:08:40;2.30;;;2.20;;
19946;SDS011;10135;50.702;7.276;2024-02-26T14:10:40;2.50;;;2.40;;
19946;SDS011;10135;50.702;7.276;2024-02-26T14:12:41;2.50;;;2.40;;
19946;SDS011;10135;50.702;7.276;2024-02-26T14:14:42;2.40;;;2.30;;
19946;SDS011;10135;50.702;7.276;2024-02-26T14:16:42;2.47;;;2.37;;
19946;SDS011;10135;50.702;7.276;2024-02-26T14:18:43;2.50;;;2.30;;
19946;SDS011;10135;50.702;7.276;2024-02-26T14:20:45;2.97;;;2.67;;
19946;SDS011;10135;50.702;7.276;2024-02-26T14:22:45;2.30;;;2.20;;
19946;SDS011;10135;50.702;7.276;2024-02-26T14:24:47;2.17;;;2.07;;
19946;SDS011;10135;50.702;7.276;2024-02-26T14:26:48;2.40;;;2.20;;
19946;SDS011;10135;50.702;7.276;2024-02-26T14:28:48;2.80;;;2.57;;
19946;SDS011;10135;50.702;7.276;2024-02-26T14:30:49;2.80;;;2.60;;
19946;SDS011;10135;50.702;7.276;2024-02-26T14:32:49;2.23;;;2.13;;
19946;SDS011;10135;50.702;7.276;2024-02-26T14:34:50;2.33;;;2.23;;
19946;SDS011;10135;50.702;7.276;2024-02-26T14:36:51;4.27;;;2.60;;
19946;SDS011;10135;50.702;7.276;2024-02-26T14:38:51;2.33;;;2.23;;
19946;SDS011;10135;50.702;7.276;2024-02-26T14:40:52;2.30;;;2.10;;
19946;SDS011;10135;50.702;7.276;2024-02-26T14:42:53;2.97;;;2.40;;
19946;SDS011;10135;50.702;7.276;2024-02-26T14:44:53;2.33;;;2.13;;
19946;SDS011;10135;50.702;7.276;2024-02-26T14:46:54;2.23;;;2.13;;
19946;SDS011;10135;50.702;7.276;2024-02-26T14:48:55;2.90;;;2.50;;
19946;SDS011;10135;50.702;7.276;2024-02-26T14:50:55;2.40;;;2.20;;
19946;SDS011;10135;50.702;7.276;2024-02-26T14:52:56;2.70;;;2.50;;
19946;SDS011;10135;50.702;7.276;2024-02-26T14:54:58;2.73;;;2.53;;
19946;SDS011;10135;50.702;7.276;2024-02-26T14:56:59;2.80;;;2.43;;
19946;SDS011;10135;50.702;7.276;2024-02-26T14:58:59;2.57;;;2.20;;
19946;SDS011;10135;50.702;7.276;2024-02-26T15:01:00;3.23;;;2.50;;
19946;SDS011;10135;50.702;7.276;2024-02-26T15:03:01;2.57;;;2.37;;
19946;SDS011;10135;50.702;7.276;2024-02-26T15:05:01;3.43;;;2.67;;
19946;SDS011;10135;50.702;7.276;2024-02-26T15:07:03;2.80;;;2.60;;
19946;SDS011;10135;50.702;7.276;2024-02-26T15:09:04;3.13;;;2.80;;
19946;SDS011;10135;50.702;7.276;2024-02-26T15:11:05;2.97;;;2.77;;
19946;SDS011;10135;50.702;7.276;2024-02-26T15:13:07;2.67;;;2.50;;
19946;SDS011;10135;50.702;7.276;2024-02-26T15:15:07;3.00;;;2.80;;
19946;SDS011;10135;50.702;7.276;2024-02-26T15:17:08;3.13;;;2.50;;
19946;SDS011;10135;50.702;7.276;2024-02-26T15:19:10;3.03;;;2.83;;
19946;SDS011;10135;50.702;7.276;2024-02-26T15:28:40;2.90;;;2.70;;
19946;SDS011;10135;50.702;7.276;2024-02-26T15:30:41;3.47;;;2.70;;
19946;SDS011;10135;50.702;7.276;2024-02-26T15:32:42;2.73;;;2.53;;
19946;SDS011;10135;50.702;7.276;2024-02-26T15:34:43;3.30;;;2.63;;
19946;SDS011;10135;50.702;7.276;2024-02-26T15:36:43;2.87;;;2.67;;
19946;SDS011;10135;50.702;7.276;2024-02-26T15:38:44;3.00;;;2.80;;
19946;SDS011;10135;50.702;7.276;2024-02-26T15:40:48;2.90;;;2.70;;
19946;SDS011;10135;50.702;7.276;2024-02-26T15:42:48;3.20;;;2.90;;
19946;SDS011;10135;50.702;7.276;2024-02-26T15:44:49;2.90;;;2.60;;
19946;SDS011;10135;50.702;7.276;2024-02-26T15:46:50;3.00;;;2.80;;
19946;SDS011;10135;50.702;7.276;2024-02-26T15:48:50;4.27;;;2.93;;
19946;SDS011;10135;50.702;7.276;2024-02-26T15:50:51;2.97;;;2.77;;
19946;SDS011;10135;50.702;7.276;2024-02-26T15:52:52;3.40;;;3.00;;
19946;SDS011;10135;50.702;7.276;2024-02-26T15:54:54;5.90;;;3.57;;
19946;SDS011;10135;50.702;7.276;2024-02-26T15:56:55;3.10;;;2.80;;
19946;SDS011;10135;50.702;7.276;2024-02-26T15:58:56;3.20;;;3.00;;
19946;SDS011;10135;50.702;7.276;2024-02-26T16:00:57;3.30;;;3.00;;
19946;SDS011;10135;50.702;7.276;2024-02-26T16:02:57;3.30;;;3.00;;
19946;SDS011;10135;50.702;7.276;2024-02-26T16:04:58;2.87;;;2.67;;
19946;SDS011;10135;50.702;7.276;2024-02-26T16:07:03;4.00;;;3.57;;
19946;SDS011;10135;50.702;7.276;2024-02-26T16:09:12;4.80;;;3.13;;
19946;SDS011;10135;50.702;7.276;2024-02-26T16:11:13;3.80;;;3.40;;
19946;SDS011;10135;50.702;7.276;2024-02-26T16:13:13;4.70;;;3.70;;
19946;SDS011;10135;50.702;7.276;2024-02-26T16:15:15;3.50;;;3.20;;
19946;SDS011;10135;50.702;7.276;2024-02-26T16:17:21;3.70;;;3.27;;
19946;SDS011;10135;50.702;7.276;2024-02-26T16:19:40;5.10;;;3.60;;
19946;SDS011;10135;50.702;7.276;2024-02-26T16:21:41;3.33;;;3.03;;
19946;SDS011;10135;50.702;7.276;2024-02-26T16:23:41;3.20;;;3.00;;
19946;SDS011;10135;50.702;7.276;2024-02-26T16:25:42;3.50;;;3.20;;
19946;SDS011;10135;50.702;7.276;2024-02-26T16:27:43;3.90;;;3.57;;
19946;SDS011;10135;50.702;7.276;2024-02-26T16:29:44;5.23;;;3.67;;
19946;SDS011;10135;50.702;7.276;2024-02-26T16:31:45;3.83;;;3.53;;
19946;SDS011;10135;50.702;7.276;2024-02-26T16:33:45;3.87;;;3.47;;
19946;SDS011;10135;50.702;7.276;2024-02-26T16:35:46;5.03;;;3.70;;
19946;SDS011;10135;50.702;7.276;2024-02-26T16:37:47;5.00;;;3.80;;
19946;SDS011;10135;50.702;7.276;2024-02-26T16:39:48;4.13;;;3.73;;
19946;SDS011;10135;50.702;7.276;2024-02-26T16:41:48;3.97;;;3.60;;
19946;SDS011;10135;50.702;7.276;2024-02-26T16:43:49;4.97;;;3.77;;
19946;SDS011;10135;50.702;7.276;2024-02-26T16:45:50;4.13;;;3.60;;
19946;SDS011;10135;50.702;7.276;2024-02-26T16:47:51;4.57;;;3.80;;
19946;SDS011;10135;50.702;7.276;2024-02-26T16:49:52;4.37;;;3.77;;
19946;SDS011;10135;50.702;7.276;2024-02-26T16:51:52;5.27;;;4.00;;
19946;SDS011;10135;50.702;7.276;2024-02-26T16:53:53;6.53;;;4.40;;
19946;SDS011;10135;50.702;7.276;2024-02-26T16:55:54;5.60;;;4.33;;
19946;SDS011;10135;50.702;7.276;2024-02-26T16:58:01;4.93;;;4.43;;
19946;SDS011;10135;50.702;7.276;2024-02-26T17:00:04;6.53;;;5.00;;
19946;SDS011;10135;50.702;7.276;2024-02-26T17:02:05;5.50;;;4.90;;
19946;SDS011;10135;50.702;7.276;2024-02-26T17:04:07;7.40;;;5.17;;
19946;SDS011;10135;50.702;7.276;2024-02-26T17:06:08;7.70;;;5.50;;
19946;SDS011;10135;50.702;7.276;2024-02-26T17:08:09;7.77;;;5.40;;
19946;SDS011;10135;50.702;7.276;2024-02-26T17:10:10;7.93;;;5.63;;
19946;SDS011;10135;50.702;7.276;2024-02-26T17:12:12;7.63;;;4.93;;
19946;SDS011;10135;50.702;7.276;2024-02-26T17:14:12;7.93;;;5.17;;
19946;SDS011;10135;50.702;7.276;2024-02-26T17:16:15;5.73;;;4.60;;
19946;SDS011;10135;50.702;7.276;2024-02-26T17:18:15;6.10;;;4.73;;
19946;SDS011;10135;50.702;7.276;2024-02-26T17:20:16;5.50;;;4.90;;
19946;SDS011;10135;50.702;7.276;2024-02-26T17:22:17;10.70;;;5.47;;
19946;SDS011;10135;50.702;7.276;2024-02-26T17:24:17;5.87;;;5.00;;
19946;SDS011;10135;50.702;7.276;2024-02-26T17:26:19;5.87;;;5.03;;
19946;SDS011;10135;50.702;7.276;2024-02-26T17:28:24;8.83;;;5.80;;
19946;SDS011;10135;50.702;7.276;2024-02-26T17:30:25;5.00;;;4.50;;
19946;SDS011;10135;50.702;7.276;2024-02-26T17:32:26;5.70;;;4.77;;
19946;SDS011;10135;50.702;7.276;2024-02-26T17:34:27;7.60;;;5.37;;
19946;SDS011;10135;50.702;7.276;2024-02-26T17:36:27;6.90;;;5.10;;
19946;SDS011;10135;50.702;7.276;2024-02-26T17:38:28;5.40;;;4.90;;
19946;SDS011;10135;50.702;7.276;2024-02-26T17:40:29;7.13;;;5.50;;
19946;SDS011;10135;50.702;7.276;2024-02-26T17:42:31;6.77;;;5.30;;
19946;SDS011;10135;50.702;7.276;2024-02-26T17:44:38;7.60;;;5.70;;
19946;SDS011;10135;50.702;7.276;2024-02-26T17:46:39;7.13;;;5.40;;
19946;SDS011;10135;50.702;7.276;2024-02-26T17:48:40;7.87;;;5.83;;
19946;SDS011;10135;50.702;7.276;2024-02-26T17:50:43;6.77;;;5.10;;
19946;SDS011;10135;50.702;7.276;2024-02-26T17:52:44;6.57;;;5.13;;
19946;SDS011;10135;50.702;7.276;2024-02-26T17:54:45;6.33;;;5.60;;
19946;SDS011;10135;50.702;7.276;2024-02-26T17:56:46;7.33;;;5.70;;
19946;SDS011;10135;50.702;7.276;2024-02-26T17:58:46;6.87;;;5.47;;
19946;SDS011;10135;50.702;7.276;2024-02-26T18:00:47;5.93;;;5.30;;
19946;SDS011;10135;50.702;7.276;2024-02-26T18:02:48;8.20;;;5.50;;
19946;SDS011;10135;50.702;7.276;2024-02-26T18:04:49;6.80;;;5.57;;
19946;SDS011;10135;50.702;7.276;2024-02-26T18:06:50;8.93;;;5.57;;
19946;SDS011;10135;50.702;7.276;2024-02-26T18:08:50;6.80;;;5.70;;
19946;SDS011;10135;50.702;7.276;2024-02-26T18:10:51;7.07;;;5.80;;
19946;SDS011;10135;50.702;7.276;2024-02-26T18:12:52;8.93;;;6.17;;
19946;SDS011;10135;50.702;7.276;2024-02-26T18:14:53;9.43;;;5.63;;
19946;SDS011;10135;50.702;7.276;2024-02-26T18:16:53;10.03;;;5.60;;
19946;SDS011;10135;50.702;7.276;2024-02-26T18:18:55;7.73;;;5.90;;
19946;SDS011;10135;50.702;7.276;2024-02-26T18:20:56;7.67;;;5.70;;
19946;SDS011;10135;50.702;7.276;2024-02-26T18:22:56;10.07;;;6.10;;
19946;SDS011;10135;50.702;7.276;2024-02-26T18:24:57;7.20;;;5.70;;
19946;SDS011;10135;50.702;7.276;2024-02-26T18:26:57;8.70;;;5.97;;
19946;SDS011;10135;50.702;7.276;2024-02-26T18:28:58;7.97;;;5.77;;
19946;SDS011;10135;50.702;7.276;2024-02-26T18:30:59;6.93;;;5.47;;
19946;SDS011;10135;50.702;7.276;2024-02-26T18:32:59;6.83;;;5.63;;
19946;SDS011;10135;50.702;7.276;2024-02-26T18:35:00;9.37;;;5.90;;
19946;SDS011;10135;50.702;7.276;2024-02-26T18:37:02;6.77;;;5.50;;